Time;durP1;ratioP1;P1;durP2;ratioP2;P2;SDS_P1;SDS_P2;PMS_P1;PMS_P2;Temp;Humidity;BMP_temperature;BMP_pressure;BME280_temperature;BME280_humidity;BME280_pressure;Samples;Min_cycle;Max_cycle;Signal;HPM_P1;HPM_P2
2022/09/30 00:01:24;;;;;;;3.22;2.92;;;9.20;99.90;;;;;;5023201;28;20504;-65
2022/09/30 00:03:54;;;;;;;12.68;2.88;;;9.50;99.90;;;;;;5014116;28;20037;-64
2022/09/30 00:06:20;;;;;;;3.78;2.50;;;9.40;99.90;;;;;;5014643;28;20037;-65
2022/09/30 00:08:46;;;;;;;4.50;2.92;;;9.30;99.90;;;;;;5014473;28;20044;-65
2022/09/30 00:11:20;;;;;;;4.15;3.42;;;;;;;;;;5018200;28;20438;-65
2022/09/30 00:13:49;;;;;;;4.32;3.08;;;9.30;99.90;;;;;;5032546;28;20076;-65
2022/09/30 00:16:16;;;;;;;3.67;2.65;;;9.40;99.90;;;;;;5029334;28;20044;-65
2022/09/30 00:18:43;;;;;;;4.70;3.83;;;9.40;99.90;;;;;;5012961;28;20507;-65
2022/09/30 00:21:11;;;;;;;5.75;4.05;;;9.50;99.90;;;;;;5012945;28;20117;-65
2022/09/30 00:23:37;;;;;;;5.82;3.33;;;9.40;99.90;;;;;;5022361;28;20399;-65
2022/09/30 00:26:06;;;;;;;3.40;3.00;;;9.40;99.90;;;;;;5033482;28;20052;-64
2022/09/30 00:28:33;;;;;;;2.45;2.25;;;9.30;99.90;;;;;;5013962;28;20050;-65
2022/09/30 00:31:05;;;;;;;3.03;2.47;;;9.30;99.90;;;;;;5014218;28;20044;-65
2022/09/30 00:33:31;;;;;;;72.20;6.82;;;9.30;99.90;;;;;;5033212;28;20564;-65
2022/09/30 00:35:57;;;;;;;8.30;3.25;;;9.10;99.90;;;;;;5020920;28;20077;-65
2022/09/30 00:38:22;;;;;;;5.45;2.20;;;9.10;99.90;;;;;;5013736;28;20069;-65
2022/09/30 00:40:50;;;;;;;5.68;1.73;;;8.90;99.90;;;;;;5014000;28;20037;-65
2022/09/30 00:43:20;;;;;;;1.98;1.23;;;8.70;99.90;;;;;;5013657;28;20404;-65
2022/09/30 00:45:58;;;;;;;0.80;0.80;;;8.60;99.90;;;;;;5031531;28;20041;-65
2022/09/30 00:48:34;;;;;;;3.30;2.50;;;8.70;99.90;;;;;;5017400;28;20033;-65
2022/09/30 00:51:03;;;;;;;2.10;1.80;;;8.60;99.90;;;;;;5013743;28;20049;-65
2022/09/30 00:53:35;;;;;;;7.88;2.20;;;8.50;99.90;;;;;;5014239;28;20057;-65
2022/09/30 00:56:12;;;;;;;1.85;1.60;;;8.20;99.90;;;;;;5032121;28;20045;-64
2022/09/30 00:58:45;;;;;;;1.50;1.40;;;8.20;99.90;;;;;;5017065;28;20042;-65
2022/09/30 01:01:11;;;;;;;2.15;1.23;;;8.20;99.90;;;;;;5013592;28;20037;-64
2022/09/30 01:03:44;;;;;;;2.83;1.48;;;8.30;99.90;;;;;;5028650;28;20408;-65
2022/09/30 01:06:10;;;;;;;2.08;1.65;;;8.10;99.90;;;;;;5024782;28;20034;-64
2022/09/30 01:08:38;;;;;;;2.55;1.73;;;8.10;99.90;;;;;;5012064;28;20095;-64
2022/09/30 01:11:04;;;;;;;3.55;1.50;;;8.20;99.90;;;;;;5015125;28;20053;-65
2022/09/30 01:13:33;;;;;;;1.60;1.50;;;8.00;99.90;;;;;;5024066;28;20099;-65
2022/09/30 01:16:11;;;;;;;2.60;1.80;;;8.00;99.90;;;;;;5012470;28;20052;-65
2022/09/30 01:19:03;;;;;;;3.38;2.10;;;8.20;99.90;;;;;;5013140;28;20053;-64
2022/09/30 01:21:58;;;;;;;2.50;2.30;;;8.00;99.90;;;;;;5012161;28;20054;-65
2022/09/30 01:24:48;;;;;;;6.07;1.90;;;8.00;99.90;;;;;;5013149;28;20539;-64
2022/09/30 01:27:41;;;;;;;3.60;1.67;;;8.10;99.90;;;;;;5013021;28;20092;-64
2022/09/30 01:30:20;;;;;;;4.30;1.70;;;8.20;99.90;;;;;;5032481;28;20088;-65
2022/09/30 01:33:08;;;;;;;2.03;1.60;;;7.90;99.90;;;;;;5018261;28;20056;-65
2022/09/30 01:36:04;;;;;;;1.60;1.50;;;8.00;99.90;;;;;;5013125;28;20038;-64
2022/09/30 01:38:50;;;;;;;2.45;1.83;;;7.90;99.90;;;;;;5031518;28;20185;-65
2022/09/30 01:41:21;;;;;;;3.05;2.15;;;8.20;99.90;;;;;;5019709;28;20042;-65
2022/09/30 01:44:11;;;;;;;2.53;2.33;;;8.10;99.90;;;;;;5013357;28;20046;-64
2022/09/30 01:47:00;;;;;;;3.05;2.60;;;8.00;99.90;;;;;;5031519;28;20041;-65
2022/09/30 01:49:38;;;;;;;2.72;1.45;;;7.90;99.90;;;;;;5022613;28;20045;-65
2022/09/30 01:52:13;;;;;;;5.45;1.55;;;7.60;99.90;;;;;;5027367;28;20052;-64
2022/09/30 01:55:09;;;;;;;23.65;1.90;;;7.60;99.90;;;;;;5012080;28;20045;-65
2022/09/30 01:57:55;;;;;;;3.13;1.92;;;7.20;99.90;;;;;;5010217;28;20069;-65
2022/09/30 02:00:21;;;;;;;1.45;1.25;;;7.40;99.90;;;;;;5031309;28;20041;-65
2022/09/30 02:03:01;;;;;;;1.77;1.42;;;7.40;99.90;;;;;;5031345;28;20033;-64
2022/09/30 02:05:39;;;;;;;2.00;1.80;;;7.40;99.90;;;;;;5031484;28;20443;-65
2022/09/30 02:08:20;;;;;;;2.53;1.88;;;7.50;99.90;;;;;;5031133;28;20041;-65
2022/09/30 02:10:55;;;;;;;3.40;3.05;;;7.50;99.90;;;;;;5032466;28;20056;-64
2022/09/30 02:13:29;;;;;;;4.10;2.38;;;7.40;99.90;;;;;;5023558;28;20034;-65
2022/09/30 02:16:01;;;;;;;4.90;2.55;;;7.30;99.90;;;;;;5011750;28;20090;-65
2022/09/30 02:18:34;;;;;;;13.80;3.08;;;7.20;99.90;;;;;;4995454;28;20415;-65
2022/09/30 02:21:02;;;;;;;67.63;4.68;;;7.50;99.90;;;;;;5011612;28;20125;-64
2022/09/30 02:23:39;;;;;;;1.63;1.38;;;7.30;99.90;;;;;;5012633;28;20124;-65
2022/09/30 02:26:23;;;;;;;2.53;1.60;;;7.10;99.90;;;;;;5023464;28;20041;-65
2022/09/30 02:28:54;;;;;;;1.85;1.60;;;7.30;99.90;;;;;;5031363;28;20050;-64
2022/09/30 02:31:23;;;;;;;2.55;2.25;;;7.30;99.90;;;;;;5028700;28;20042;-65
2022/09/30 02:34:10;;;;;;;8.95;2.28;;;7.20;99.90;;;;;;5021471;28;20045;-64
2022/09/30 02:36:51;;;;;;;1.63;1.52;;;7.10;99.90;;;;;;5020384;28;20038;-65
2022/09/30 02:39:41;;;;;;;1.67;1.58;;;7.10;99.90;;;;;;5016267;28;20041;-65
2022/09/30 02:42:17;;;;;;;3.60;1.60;;;6.80;99.90;;;;;;5020972;28;20080;-65
2022/09/30 02:44:43;;;;;;;2.17;1.52;;;6.90;99.90;;;;;;5032262;28;20124;-65
2022/09/30 02:47:42;;;;;;;1.50;1.40;;;6.70;99.90;;;;;;5031596;28;20161;-65
2022/09/30 02:50:19;;;;;;;1.50;1.40;;;6.70;99.90;;;;;;4994762;28;20072;-65
2022/09/30 02:53:02;;;;;;;2.05;1.33;;;6.70;99.90;;;;;;5014660;28;20049;-65
2022/09/30 02:55:44;;;;;;;3.78;1.60;;;6.70;99.90;;;;;;5016000;28;20156;-65
2022/09/30 02:58:19;;;;;;;3.60;2.08;;;6.80;99.90;;;;;;5015782;28;20052;-65
2022/09/30 03:00:45;;;;;;;2.83;2.53;;;6.70;99.90;;;;;;5028380;28;20042;-65
2022/09/30 03:03:32;;;;;;;3.47;2.13;;;6.80;99.90;;;;;;5015386;28;20116;-64
2022/09/30 03:05:58;;;;;;;4.50;3.13;;;6.60;99.90;;;;;;5015727;28;20404;-65
2022/09/30 03:08:24;;;;;;;4.72;2.88;;;6.90;99.90;;;;;;5026242;28;20041;-65
2022/09/30 03:10:51;;;;;;;3.80;2.80;;;6.80;99.90;;;;;;5032427;28;20088;-64
2022/09/30 03:13:22;;;;;;;4.32;2.47;;;6.60;99.90;;;;;;5006598;28;20041;-65
2022/09/30 03:16:29;;;;;;;3.67;2.88;;;6.80;99.90;;;;;;5033067;28;20049;-65
2022/09/30 03:19:23;;;;;;;4.63;2.20;;;6.60;99.90;;;;;;4956579;28;20059;-65
2022/09/30 03:22:06;;;;;;;2.40;1.17;;;6.60;99.90;;;;;;5014721;28;20057;-65
2022/09/30 03:24:54;;;;;;;3.95;1.60;;;6.40;99.90;;;;;;5032960;28;20041;-65
2022/09/30 03:27:33;;;;;;;1.70;1.38;;;6.30;99.90;;;;;;5034054;28;20060;-65
2022/09/30 03:30:06;;;;;;;2.03;1.83;;;6.30;99.90;;;;;;5015278;28;20042;-65
2022/09/30 03:33:06;;;;;;;3.35;2.15;;;6.70;99.90;;;;;;5015264;28;20048;-64
2022/09/30 03:35:34;;;;;;;3.67;1.83;;;6.60;99.90;;;;;;5019812;28;20074;-65
2022/09/30 03:38:12;;;;;;;8.15;2.22;;;6.60;99.90;;;;;;5014217;28;20034;-65
2022/09/30 03:41:04;;;;;;;2.38;2.17;;;6.40;99.90;;;;;;5033766;28;20045;-64
2022/09/30 03:43:35;;;;;;;2.28;1.80;;;6.70;99.90;;;;;;5016028;28;20515;-64
2022/09/30 03:46:16;;;;;;;2.42;1.80;;;6.50;99.90;;;;;;5033505;28;20162;-65
2022/09/30 03:48:45;;;;;;;3.05;1.95;;;6.20;99.90;;;;;;5013863;28;20117;-65
2022/09/30 03:51:12;;;;;;;3.25;1.40;;;6.40;99.90;;;;;;5013471;28;20049;-65
2022/09/30 03:53:42;;;;;;;2.20;2.00;;;6.40;99.90;;;;;;5014472;28;20084;-65
2022/09/30 03:56:08;;;;;;;2.70;2.38;;;6.30;99.90;;;;;;5013792;28;20045;-65
2022/09/30 03:58:40;;;;;;;2.88;1.90;;;6.30;99.90;;;;;;5014592;28;20699;-65
2022/09/30 04:01:06;;;;;;;2.30;2.10;;;6.30;99.90;;;;;;5014782;28;20121;-65
2022/09/30 04:03:31;;;;;;;1.35;1.25;;;6.30;99.90;;;;;;5028583;28;20124;-64
2022/09/30 04:05:57;;;;;;;2.38;1.83;;;6.20;99.90;;;;;;5025422;28;20073;-65
2022/09/30 04:08:23;;;;;;;2.50;1.95;;;6.20;99.90;;;;;;5013220;28;20121;-65
2022/09/30 04:10:48;;;;;;;3.22;1.83;;;6.30;99.90;;;;;;5014485;28;20045;-64
2022/09/30 04:13:14;;;;;;;4.25;2.00;;;6.20;99.90;;;;;;5025830;28;20041;-65
2022/09/30 04:15:40;;;;;;;1.83;1.50;;;6.00;99.90;;;;;;5015178;28;20125;-65
2022/09/30 04:18:06;;;;;;;1.73;1.33;;;5.90;99.90;;;;;;5014268;28;20038;-64
2022/09/30 04:20:31;;;;;;;22.10;3.05;;;6.00;99.90;;;;;;5013043;28;20391;-64
2022/09/30 04:22:58;;;;;;;2.63;1.95;;;5.70;99.90;;;;;;5020854;28;20041;-64
2022/09/30 04:25:26;;;;;;;8.23;1.75;;;5.90;99.90;;;;;;5032835;28;20562;-64
2022/09/30 04:27:51;;;;;;;1.98;1.77;;;5.90;99.90;;;;;;5026636;28;20033;-64
2022/09/30 04:30:17;;;;;;;3.45;2.70;;;5.80;99.90;;;;;;5013104;28;20104;-65
2022/09/30 04:32:44;;;;;;;3.80;2.50;;;;;;;;;;5031890;28;20061;-64
2022/09/30 04:35:12;;;;;;;2.42;2.22;;;5.70;99.90;;;;;;5026467;28;20053;-64
2022/09/30 04:37:43;;;;;;;2.83;2.40;;;5.80;99.90;;;;;;5012709;28;20125;-64
2022/09/30 04:40:10;;;;;;;3.25;2.80;;;5.80;99.90;;;;;;5012446;28;20503;-64
2022/09/30 04:42:41;;;;;;;4.20;2.55;;;5.70;99.90;;;;;;5012607;28;20038;-65
2022/09/30 04:45:08;;;;;;;2.40;2.17;;;5.70;99.90;;;;;;5022159;28;20042;-64
2022/09/30 04:47:34;;;;;;;3.45;2.17;;;5.70;99.90;;;;;;5022211;28;20042;-64
2022/09/30 04:49:59;;;;;;;3.47;2.28;;;5.70;99.90;;;;;;5013516;28;20034;-65
2022/09/30 04:52:25;;;;;;;2.53;2.33;;;5.50;99.90;;;;;;5013791;28;20488;-64
2022/09/30 04:54:51;;;;;;;2.47;2.22;;;5.50;99.90;;;;;;5012371;28;20048;-64
2022/09/30 04:57:16;;;;;;;3.20;2.70;;;5.70;99.90;;;;;;5013791;28;20038;-65
2022/09/30 04:59:43;;;;;;;6.30;2.88;;;;;;;;;;5013479;28;20048;-64
2022/09/30 05:02:11;;;;;;;3.20;2.75;;;5.60;99.90;;;;;;5013604;28;20100;-65
2022/09/30 05:04:37;;;;;;;2.35;2.15;;;5.50;99.90;;;;;;5012484;28;20042;-65
2022/09/30 05:07:07;;;;;;;3.05;1.80;;;5.40;99.90;;;;;;5013172;28;20563;-64
2022/09/30 05:09:36;;;;;;;1.88;1.70;;;5.20;99.90;;;;;;5018905;28;20542;-64
2022/09/30 05:12:02;;;;;;;2.20;1.85;;;5.30;99.90;;;;;;5014901;28;20038;-65
2022/09/30 05:14:29;;;;;;;1.85;1.75;;;5.30;99.90;;;;;;5024053;28;20472;-65
2022/09/30 05:16:55;;;;;;;2.35;2.03;;;5.20;99.90;;;;;;5013370;28;20501;-64
2022/09/30 05:19:20;;;;;;;2.20;2.00;;;5.30;99.90;;;;;;5015101;28;20049;-64
2022/09/30 05:21:46;;;;;;;8.10;2.20;;;5.40;99.90;;;;;;5020252;28;20046;-64
2022/09/30 05:24:12;;;;;;;3.65;2.42;;;5.30;99.90;;;;;;5011871;28;20041;-64
2022/09/30 05:26:39;;;;;;;2.97;2.53;;;5.30;99.90;;;;;;5023145;28;20050;-64
2022/09/30 05:29:05;;;;;;;6.75;2.92;;;5.20;99.90;;;;;;5030851;28;20392;-64
2022/09/30 05:31:31;;;;;;;3.95;3.08;;;4.90;99.90;;;;;;5013286;28;20077;-64
2022/09/30 05:33:56;;;;;;;2.65;2.45;;;5.30;99.90;;;;;;5023420;28;20052;-64
2022/09/30 05:36:22;;;;;;;4.00;2.63;;;5.30;99.90;;;;;;5016836;28;20507;-64
2022/09/30 05:38:51;;;;;;;3.13;2.65;;;5.40;99.90;;;;;;5012997;28;20042;-64
2022/09/30 05:41:20;;;;;;;2.53;1.98;;;;;;;;;;5012219;28;20045;-64
2022/09/30 05:43:49;;;;;;;2.80;2.15;;;5.20;99.90;;;;;;5015859;28;20104;-64
2022/09/30 05:46:16;;;;;;;2.30;2.08;;;5.20;99.90;;;;;;5031458;28;20080;-64
2022/09/30 05:48:42;;;;;;;2.05;1.85;;;5.20;99.90;;;;;;5027135;28;20459;-64
2022/09/30 05:51:08;;;;;;;2.55;2.35;;;5.30;99.90;;;;;;5011978;28;20071;-64
2022/09/30 05:53:40;;;;;;;5.00;3.25;;;5.20;99.90;;;;;;5013021;28;20034;-64
2022/09/30 05:56:06;;;;;;;5.72;2.85;;;5.20;99.90;;;;;;5011679;28;20081;-65
2022/09/30 05:58:32;;;;;;;2.88;2.58;;;5.10;99.90;;;;;;5011578;28;20049;-64
2022/09/30 06:01:07;;;;;;;2.13;1.92;;;5.10;99.90;;;;;;5011596;28;20037;-64
2022/09/30 06:03:33;;;;;;;3.08;2.05;;;5.20;99.90;;;;;;5015292;28;20121;-64
2022/09/30 06:05:59;;;;;;;2.25;2.05;;;5.20;99.90;;;;;;5032433;28;20045;-65
2022/09/30 06:08:25;;;;;;;2.30;2.10;;;5.10;99.90;;;;;;5036500;28;20048;-65
2022/09/30 06:10:51;;;;;;;2.38;2.17;;;5.10;99.90;;;;;;5035307;28;20128;-65
2022/09/30 06:13:16;;;;;;;2.78;2.55;;;5.20;99.90;;;;;;5036011;28;20042;-65
2022/09/30 06:15:43;;;;;;;4.15;2.63;;;5.10;99.90;;;;;;5035916;28;20045;-65
2022/09/30 06:18:09;;;;;;;4.20;2.85;;;5.20;99.90;;;;;;5036282;28;20091;-65
2022/09/30 06:20:36;;;;;;;2.60;2.30;;;5.30;99.90;;;;;;5034878;28;20176;-65
2022/09/30 06:23:02;;;;;;;2.78;2.50;;;5.30;99.90;;;;;;5036184;28;20037;-65
2022/09/30 06:25:28;;;;;;;3.40;2.90;;;5.40;99.90;;;;;;5036019;28;20041;-65
2022/09/30 06:27:55;;;;;;;3.17;2.88;;;5.50;99.90;;;;;;5036092;28;20116;-65
2022/09/30 06:30:20;;;;;;;3.75;3.45;;;5.70;99.90;;;;;;5035835;28;20084;-64
2022/09/30 06:32:46;;;;;;;5.22;2.75;;;5.70;99.90;;;;;;5034331;28;20115;-65
2022/09/30 06:35:12;;;;;;;2.80;2.20;;;;;;;;;;5031465;28;20187;-64
2022/09/30 06:37:38;;;;;;;3.30;2.83;;;5.70;99.90;;;;;;5031524;28;20152;-64
2022/09/30 06:40:05;;;;;;;3.10;2.80;;;5.80;99.90;;;;;;5034056;28;20033;-65
2022/09/30 06:42:31;;;;;;;4.68;3.08;;;5.60;99.90;;;;;;5035311;28;20056;-65
2022/09/30 06:44:57;;;;;;;12.18;4.25;;;;;;;;;;5033750;28;20045;-65
2022/09/30 06:47:22;;;;;;;27.83;5.25;;;5.90;99.90;;;;;;5034065;28;20033;-65
2022/09/30 06:49:49;;;;;;;15.50;5.60;;;6.00;99.90;;;;;;5035452;28;20059;-66
2022/09/30 06:52:15;;;;;;;52.92;6.07;;;6.10;99.90;;;;;;5033297;28;20546;-62
2022/09/30 06:54:41;;;;;;;15.05;4.90;;;6.00;99.90;;;;;;5034499;28;20034;-65
2022/09/30 06:57:07;;;;;;;10.23;5.60;;;6.10;99.90;;;;;;5033669;28;20042;-64
2022/09/30 06:59:32;;;;;;;43.05;9.00;;;6.30;99.90;;;;;;5033718;28;20513;-64
2022/09/30 07:01:58;;;;;;;33.65;10.40;;;6.40;99.90;;;;;;5033079;28;20037;-64
2022/09/30 07:04:23;;;;;;;53.60;12.30;;;6.50;99.90;;;;;;5032814;28;20037;-64
2022/09/30 07:06:49;;;;;;;77.68;12.68;;;6.70;99.90;;;;;;5034694;28;20044;-64
2022/09/30 07:09:15;;;;;;;65.03;14.02;;;6.80;99.90;;;;;;5032340;28;20054;-63
2022/09/30 07:11:40;;;;;;;48.75;15.05;;;6.80;99.90;;;;;;5033715;28;20052;-64
2022/09/30 07:14:07;;;;;;;25.80;11.48;;;7.00;99.90;;;;;;5033515;28;20046;-65
2022/09/30 07:16:33;;;;;;;18.13;11.50;;;7.20;99.90;;;;;;5034061;28;20037;-65
2022/09/30 07:19:03;;;;;;;32.40;13.80;;;7.30;99.90;;;;;;5033657;28;20502;-64
2022/09/30 07:21:30;;;;;;;41.60;16.02;;;7.20;99.90;;;;;;5034960;28;20037;-64
2022/09/30 07:23:57;;;;;;;29.17;14.55;;;7.60;99.90;;;;;;5034923;28;20396;-64
2022/09/30 07:26:24;;;;;;;29.88;17.15;;;7.70;99.90;;;;;;5035068;28;20118;-66
2022/09/30 07:28:50;;;;;;;29.15;16.17;;;7.90;99.90;;;;;;5034586;28;20042;-65
2022/09/30 07:31:22;;;;;;;24.48;15.82;;;8.10;99.90;;;;;;5033909;28;20166;-66
2022/09/30 07:33:51;;;;;;;27.60;15.40;;;8.20;99.90;;;;;;5034699;28;20041;-64
2022/09/30 07:36:25;;;;;;;26.52;17.33;;;8.70;99.90;;;;;;5030415;28;20036;-65
2022/09/30 07:38:51;;;;;;;24.60;17.50;;;8.90;99.90;;;;;;5032066;28;20037;-65
2022/09/30 07:41:21;;;;;;;23.48;15.82;;;9.10;99.90;;;;;;5033824;28;20378;-65
2022/09/30 07:43:47;;;;;;;23.38;16.42;;;9.30;99.90;;;;;;5027269;28;20564;-64
2022/09/30 07:46:19;;;;;;;22.20;16.17;;;9.20;99.90;;;;;;5032952;28;20033;-65
2022/09/30 07:48:47;;;;;;;19.83;14.93;;;9.40;99.90;;;;;;5032165;28;20061;-64
2022/09/30 07:51:25;;;;;;;19.40;15.18;;;9.60;99.90;;;;;;5032369;28;20080;-66
2022/09/30 07:53:56;;;;;;;22.65;15.43;;;9.60;99.90;;;;;;5030918;28;20108;-64
2022/09/30 07:56:23;;;;;;;21.25;16.17;;;9.80;99.90;;;;;;5016248;28;20037;-64
2022/09/30 07:58:53;;;;;;;20.85;15.30;;;9.80;99.90;;;;;;5033833;28;20052;-64
2022/09/30 08:01:19;;;;;;;21.13;15.00;;;10.10;99.90;;;;;;5033687;28;20037;-66
2022/09/30 08:03:44;;;;;;;21.38;15.32;;;10.20;99.90;;;;;;5032762;28;20124;-66
2022/09/30 08:06:16;;;;;;;21.67;15.88;;;10.20;99.90;;;;;;5034118;28;20116;-62
2022/09/30 08:08:43;;;;;;;19.17;14.68;;;10.40;99.90;;;;;;5032325;28;20053;-65
2022/09/30 08:11:10;;;;;;;22.08;15.77;;;10.70;99.90;;;;;;5034054;28;20045;-67
2022/09/30 08:13:36;;;;;;;20.58;14.55;;;11.20;99.90;;;;;;5033688;28;20044;-68
2022/09/30 08:16:02;;;;;;;20.83;14.38;;;11.20;99.90;;;;;;5032257;28;20045;-67
2022/09/30 08:18:28;;;;;;;15.02;12.38;;;11.40;99.90;;;;;;5027103;28;20050;-66
2022/09/30 08:20:54;;;;;;;17.58;12.63;;;12.30;99.90;;;;;;5023021;28;20089;-65
2022/09/30 08:23:19;;;;;;;14.50;11.68;;;12.50;99.90;;;;;;5032660;28;20069;-66
2022/09/30 08:25:45;;;;;;;14.60;9.98;;;;;;;;;;5024455;28;20692;-65
2022/09/30 08:28:12;;;;;;;11.75;9.82;;;12.90;99.90;;;;;;5026874;28;20148;-65
2022/09/30 08:30:38;;;;;;;15.10;10.57;;;13.00;99.90;;;;;;5023151;28;20054;-65
2022/09/30 08:33:04;;;;;;;10.63;8.90;;;13.10;99.90;;;;;;5032724;28;20095;-65
2022/09/30 08:35:30;;;;;;;12.00;9.48;;;;;;;;;;5031719;28;20084;-65
2022/09/30 08:37:56;;;;;;;11.73;9.95;;;13.20;99.90;;;;;;5016790;28;20046;-65
2022/09/30 08:40:26;;;;;;;13.63;9.77;;;13.70;99.90;;;;;;5011892;28;20060;-65
2022/09/30 08:42:57;;;;;;;11.85;8.55;;;13.60;99.90;;;;;;5012065;28;20046;-65
2022/09/30 08:45:42;;;;;;;11.68;9.00;;;13.50;99.90;;;;;;5027016;28;20104;-66
2022/09/30 08:48:24;;;;;;;12.05;9.27;;;13.60;99.90;;;;;;5013269;28;20044;-64
2022/09/30 08:51:27;;;;;;;16.95;10.15;;;13.50;99.90;;;;;;5031383;28;20038;-65
2022/09/30 08:53:54;;;;;;;11.93;8.20;;;13.60;99.90;;;;;;5028811;28;20475;-65
2022/09/30 08:56:24;;;;;;;10.75;9.60;;;13.70;99.90;;;;;;5031088;28;20484;-64
2022/09/30 08:59:01;;;;;;;12.05;8.05;;;14.20;99.90;;;;;;5032391;28;20057;-66
2022/09/30 09:01:42;;;;;;;8.50;7.00;;;14.70;99.90;;;;;;5031073;28;20033;-64
2022/09/30 09:04:09;;;;;;;7.30;6.35;;;;;;;;;;5021033;28;20045;-64
2022/09/30 09:06:53;;;;;;;7.18;6.40;;;15.20;99.90;;;;;;5031718;28;20049;-64
2022/09/30 09:09:33;;;;;;;9.52;6.88;;;16.80;99.90;;;;;;5022377;28;20120;-65
2022/09/30 09:12:24;;;;;;;7.82;5.70;;;18.30;99.90;;;;;;5015034;28;20045;-65
2022/09/30 09:15:18;;;;;;;6.63;4.45;;;18.40;99.90;;;;;;5022664;28;20059;-66
2022/09/30 09:18:37;;;;;;;4.05;3.55;;;20.00;99.90;;;;;;5029341;28;20052;-65
2022/09/30 09:21:37;;;;;;;5.28;3.35;;;22.00;99.90;;;;;;4994440;28;20542;-65
2022/09/30 09:24:04;;;;;;;4.68;2.85;;;23.60;99.90;;;;;;5032632;28;20084;-65
2022/09/30 09:26:35;;;;;;;5.38;3.20;;;24.90;99.90;;;;;;5032728;28;20044;-64
2022/09/30 09:29:19;;;;;;;3.50;2.58;;;26.50;99.90;;;;;;5028438;28;20073;-65
2022/09/30 09:31:47;;;;;;;3.28;2.72;;;25.50;99.90;;;;;;5023474;28;20049;-65
2022/09/30 09:34:13;;;;;;;3.22;2.45;;;25.90;99.90;;;;;;5032176;28;20407;-65
2022/09/30 09:37:07;;;;;;;3.30;2.30;;;26.40;99.90;;;;;;5016393;28;20069;-65
2022/09/30 09:39:47;;;;;;;4.13;2.17;;;26.60;99.90;;;;;;5032164;28;20048;-64
2022/09/30 09:42:48;;;;;;;3.50;2.40;;;27.20;99.90;;;;;;5022650;28;20030;-64
2022/09/30 09:45:22;;;;;;;5.80;2.80;;;27.50;99.90;;;;;;5023590;28;20042;-65
2022/09/30 09:47:51;;;;;;;;;;;27.90;99.90;;;;;;5020591;28;20124;-66
2022/09/30 09:50:33;;;;;;;3.85;2.65;;;27.60;99.90;;;;;;5010848;28;19925;-65
2022/09/30 09:53:17;;;;;;;3.10;2.17;;;28.00;99.90;;;;;;5012127;28;20057;-65
2022/09/30 09:55:43;;;;;;;2.10;1.48;;;27.90;99.90;;;;;;5026881;28;20376;-65
2022/09/30 09:58:16;;;;;;;5.80;1.77;;;28.50;99.90;;;;;;5024157;28;20034;-65
2022/09/30 10:03:15;;;;;;;6.28;2.80;;;29.00;99.20;;;;;;5019371;28;20424;-65
2022/09/30 10:05:41;;;;;;;3.15;2.45;;;27.70;99.50;;;;;;5032417;28;20041;-66
2022/09/30 10:08:22;;;;;;;2.58;1.75;;;25.40;99.90;;;;;;5032443;28;20045;-67
2022/09/30 10:10:50;;;;;;;3.47;2.40;;;23.70;99.90;;;;;;5032117;28;20060;-66
2022/09/30 10:13:29;;;;;;;3.35;2.05;;;22.90;99.90;;;;;;5030948;28;20518;-66
2022/09/30 10:16:00;;;;;;;4.25;2.08;;;21.60;99.90;;;;;;5031054;28;20041;-66
2022/09/30 10:18:31;;;;;;;3.25;2.30;;;20.30;99.90;;;;;;5031384;28;20053;-66
2022/09/30 10:21:05;;;;;;;3.60;2.20;;;19.40;99.90;;;;;;5030719;28;20055;-66
2022/09/30 10:23:35;;;;;;;2.88;2.00;;;19.20;99.90;;;;;;5032881;28;20432;-66
2022/09/30 10:26:15;;;;;;;3.47;2.35;;;18.20;99.90;;;;;;5029563;28;20048;-66
2022/09/30 10:28:52;;;;;;;4.75;3.13;;;18.10;99.90;;;;;;5031066;28;20092;-66
2022/09/30 10:31:36;;;;;;;8.00;3.38;;;17.60;99.90;;;;;;5017962;28;20049;-66
2022/09/30 10:34:23;;;;;;;4.95;3.33;;;17.60;99.90;;;;;;5029380;28;20480;-66
2022/09/30 10:36:49;;;;;;;4.07;3.30;;;17.20;99.90;;;;;;5031156;28;20056;-66
2022/09/30 10:39:25;;;;;;;4.63;3.60;;;17.10;99.90;;;;;;5032335;28;20076;-66
2022/09/30 10:42:06;;;;;;;3.67;3.00;;;16.90;99.90;;;;;;5032162;28;20040;-66
2022/09/30 10:44:40;;;;;;;4.90;3.25;;;16.80;99.90;;;;;;5030876;28;20069;-66
2022/09/30 10:47:06;;;;;;;5.28;3.80;;;16.70;99.90;;;;;;5029484;28;20037;-66
2022/09/30 10:49:44;;;;;;;5.68;2.78;;;16.60;99.90;;;;;;5035674;28;20043;-66
2022/09/30 10:52:31;;;;;;;3.80;2.92;;;16.50;99.90;;;;;;5034226;28;20037;-66
2022/09/30 10:54:59;;;;;;;2.67;2.22;;;16.50;99.90;;;;;;5034268;28;20377;-66
2022/09/30 10:57:31;;;;;;;2.65;1.88;;;16.60;99.90;;;;;;5035510;28;20033;-66
2022/09/30 11:00:05;;;;;;;3.63;2.40;;;16.50;99.90;;;;;;5029967;28;20554;-65
2022/09/30 11:02:39;;;;;;;2.53;1.90;;;16.70;99.90;;;;;;5031322;28;20038;-66
2022/09/30 11:05:21;;;;;;;2.38;1.67;;;16.50;99.90;;;;;;5030117;28;20050;-66
2022/09/30 11:08:01;;;;;;;3.28;1.05;;;16.60;99.90;;;;;;5018552;28;20037;-66
2022/09/30 11:11:01;;;;;;;3.17;1.60;;;16.90;99.90;;;;;;5028580;28;20455;-66
2022/09/30 11:13:41;;;;;;;2.10;1.30;;;16.80;99.90;;;;;;5020409;28;20044;-66
2022/09/30 11:16:07;;;;;;;2.63;1.00;;;16.50;99.90;;;;;;5018599;28;20046;-66
2022/09/30 11:18:54;;;;;;;2.63;1.13;;;16.80;99.90;;;;;;5018564;28;20128;-67
2022/09/30 11:21:20;;;;;;;3.25;2.00;;;;;;;;;;5016080;28;20049;-66
2022/09/30 11:23:59;;;;;;;3.35;1.67;;;16.80;99.90;;;;;;5013504;28;20431;-66
2022/09/30 11:26:28;;;;;;;2.30;1.45;;;16.90;99.90;;;;;;5013941;28;20109;-66
2022/09/30 11:29:19;;;;;;;2.50;1.60;;;16.70;99.90;;;;;;5015466;28;20033;-66
2022/09/30 11:32:00;;;;;;;1.48;1.10;;;16.70;99.90;;;;;;5014707;28;20484;-66
2022/09/30 11:34:39;;;;;;;4.15;1.38;;;16.70;99.90;;;;;;5034253;28;20101;-66
2022/09/30 11:37:11;;;;;;;3.67;1.40;;;16.70;99.90;;;;;;5013924;28;20034;-66
2022/09/30 11:39:51;;;;;;;2.55;1.48;;;16.90;99.90;;;;;;5014590;28;20050;-66
2022/09/30 11:42:27;;;;;;;2.20;1.60;;;16.80;99.90;;;;;;5033928;28;20495;-67
2022/09/30 11:45:04;;;;;;;2.20;0.93;;;16.70;99.90;;;;;;5026192;28;20044;-67
2022/09/30 11:47:39;;;;;;;1.45;1.20;;;16.80;99.90;;;;;;5033693;28;20045;-66
2022/09/30 11:50:22;;;;;;;1.98;1.40;;;16.60;99.90;;;;;;5017964;28;20049;-67
2022/09/30 11:52:53;;;;;;;4.65;1.85;;;16.60;99.90;;;;;;5013982;28;20420;-67
2022/09/30 11:55:39;;;;;;;2.60;1.48;;;16.60;99.90;;;;;;5013818;28;20052;-66
2022/09/30 11:58:08;;;;;;;1.65;1.13;;;16.50;99.90;;;;;;4997555;28;20042;-67
2022/09/30 12:00:39;;;;;;;6.20;2.55;;;16.90;99.90;;;;;;5019137;28;20041;-66
2022/09/30 12:03:24;;;;;;;3.10;0.93;;;16.70;99.90;;;;;;5034874;28;20052;-66
2022/09/30 12:06:00;;;;;;;2.00;1.08;;;16.70;99.90;;;;;;5020417;28;20037;-67
2022/09/30 12:08:34;;;;;;;1.92;0.90;;;16.60;99.90;;;;;;5034959;28;20076;-66
2022/09/30 12:11:07;;;;;;;2.30;1.30;;;16.70;99.90;;;;;;5013905;28;20396;-66
2022/09/30 12:13:38;;;;;;;1.83;1.35;;;16.60;99.90;;;;;;5027445;28;20050;-68
2022/09/30 12:16:10;;;;;;;5.15;2.53;;;16.60;99.90;;;;;;5022134;28;20080;-66
2022/09/30 12:18:40;;;;;;;3.28;1.70;;;16.50;99.90;;;;;;5019902;28;20488;-66
2022/09/30 12:21:31;;;;;;;2.45;1.52;;;16.60;99.90;;;;;;5015070;28;20049;-67
2022/09/30 12:24:20;;;;;;;1.88;1.40;;;16.80;99.90;;;;;;5028930;28;20044;-67
2022/09/30 12:26:46;;;;;;;2.13;1.27;;;16.80;99.90;;;;;;5023817;28;20040;-66
2022/09/30 12:32:28;;;;;;;2.03;1.30;;;16.80;99.90;;;;;;5014648;28;20041;-66
2022/09/30 12:35:08;;;;;;;2.72;1.63;;;16.70;99.90;;;;;;5030979;28;20084;-67
2022/09/30 12:37:47;;;;;;;2.30;1.30;;;16.60;99.90;;;;;;5032878;28;20064;-66
2022/09/30 12:40:40;;;;;;;3.28;1.20;;;16.90;99.90;;;;;;5033696;28;20048;-66
2022/09/30 12:43:21;;;;;;;4.05;2.10;;;16.80;99.90;;;;;;5017314;28;20117;-66
2022/09/30 12:46:18;;;;;;;6.20;2.13;;;16.70;99.90;;;;;;5030271;28;20433;-66
2022/09/30 12:48:47;;;;;;;2.65;2.28;;;17.00;99.90;;;;;;5020192;28;20041;-66
2022/09/30 12:51:34;;;;;;;5.72;2.33;;;16.70;99.90;;;;;;5033800;28;20042;-66
2022/09/30 12:54:37;;;;;;;4.25;1.52;;;16.80;99.90;;;;;;5014139;28;20092;-66
2022/09/30 12:57:07;;;;;;;3.78;2.30;;;16.90;99.90;;;;;;5031097;28;20555;-67
2022/09/30 12:59:36;;;;;;;3.17;2.20;;;16.90;99.90;;;;;;5033756;28;20081;-67
2022/09/30 13:02:05;;;;;;;2.97;2.17;;;16.60;99.90;;;;;;5016572;28;20030;-66
2022/09/30 13:04:36;;;;;;;3.03;2.00;;;16.70;99.90;;;;;;5023430;28;20033;-66
2022/09/30 13:07:02;;;;;;;4.95;2.30;;;16.60;99.90;;;;;;5019908;28;20042;-66
2022/09/30 13:09:54;;;;;;;4.38;3.10;;;16.40;99.90;;;;;;5032593;28;20053;-66
2022/09/30 13:12:39;;;;;;;5.78;3.05;;;16.40;99.90;;;;;;5016787;28;20076;-66
2022/09/30 13:15:40;;;;;;;;;;;16.20;99.90;;;;;;5032096;28;20096;-66
2022/09/30 13:18:31;;;;;;;3.83;2.67;;;16.20;99.90;;;;;;4946347;28;19917;-66
2022/09/30 13:21:03;;;;;;;4.10;2.75;;;16.20;99.90;;;;;;5040889;28;20046;-66
2022/09/30 13:23:36;;;;;;;4.28;3.00;;;16.30;99.90;;;;;;5004221;28;20049;-66
2022/09/30 13:26:02;;;;;;;5.00;2.95;;;16.40;99.90;;;;;;5032002;28;20033;-66
2022/09/30 13:28:36;;;;;;;5.25;2.63;;;16.60;99.90;;;;;;5031999;28;20049;-66
2022/09/30 13:31:17;;;;;;;2.10;1.67;;;16.60;99.90;;;;;;5018084;28;20041;-67